Time;durP1;ratioP1;P1;durP2;ratioP2;P2;SDS_P1;SDS_P2;PMS_P1;PMS_P2;Temp;Humidity;BMP_temperature;BMP_pressure;BME280_temperature;BME280_humidity;BME280_pressure;Samples;Min_cycle;Max_cycle;Signal;HPM_P1;HPM_P2
2022/07/29 00:00:44;;;;;;;5.35;2.60;;;19.40;99.90;;;;;;4997638;28;20034;-33
2022/07/29 00:03:10;;;;;;;;;;;19.50;99.90;;;;;;4995839;28;20034;-34
2022/07/29 00:05:36;;;;;;;3.50;2.33;;;19.40;99.90;;;;;;4995712;28;20306;-34
2022/07/29 00:08:01;;;;;;;4.15;2.33;;;19.20;99.90;;;;;;4995844;28;20030;-33
2022/07/29 00:10:27;;;;;;;4.03;2.72;;;19.10;99.90;;;;;;4998169;28;20034;-33
2022/07/29 00:12:52;;;;;;;3.78;2.35;;;19.00;99.90;;;;;;4994622;28;20493;-36
2022/07/29 00:15:18;;;;;;;2.80;2.40;;;19.20;99.90;;;;;;4994794;28;20109;-35
2022/07/29 00:17:44;;;;;;;4.00;2.65;;;19.30;99.90;;;;;;5004144;28;20026;-33
2022/07/29 00:20:09;;;;;;;2.60;2.40;;;19.20;99.90;;;;;;4998192;28;20398;-33
2022/07/29 00:22:38;;;;;;;3.72;2.47;;;19.00;99.90;;;;;;4998107;28;20034;-33
2022/07/29 00:25:04;;;;;;;3.05;2.47;;;18.70;99.90;;;;;;5000651;28;20033;-34
2022/07/29 00:27:30;;;;;;;2.92;2.63;;;18.80;99.90;;;;;;5002272;28;20403;-34
2022/07/29 00:29:55;;;;;;;4.63;2.65;;;19.00;99.90;;;;;;5000750;28;20140;-34
2022/07/29 00:32:21;;;;;;;3.10;2.70;;;19.00;99.90;;;;;;4999468;28;20034;-33
2022/07/29 00:37:31;;;;;;;4.40;2.55;;;19.10;99.90;;;;;;4999874;28;20061;-34
2022/07/29 00:39:56;;;;;;;2.70;2.50;;;19.10;99.90;;;;;;4999457;28;20113;-33
2022/07/29 00:42:22;;;;;;;3.15;2.55;;;19.20;99.90;;;;;;4998561;28;20038;-34
2022/07/29 00:44:48;;;;;;;3.72;2.67;;;19.10;99.90;;;;;;5001230;28;20045;-34
2022/07/29 00:47:13;;;;;;;3.22;2.67;;;19.00;99.90;;;;;;4996592;28;20084;-34
2022/07/29 00:49:41;;;;;;;3.03;2.72;;;18.80;99.90;;;;;;5000739;28;20480;-33
2022/07/29 00:52:08;;;;;;;3.58;2.75;;;18.70;99.90;;;;;;4999518;28;20041;-36
2022/07/29 00:54:34;;;;;;;2.83;2.50;;;18.80;99.90;;;;;;4999460;28;20143;-33
2022/07/29 00:57:00;;;;;;;4.40;2.60;;;18.80;99.90;;;;;;5000139;28;20037;-33
2022/07/29 00:59:27;;;;;;;2.85;2.63;;;18.60;99.90;;;;;;4999584;28;20028;-34
2022/07/29 01:01:53;;;;;;;3.50;3.20;;;18.60;99.90;;;;;;4999851;28;20045;-32
2022/07/29 01:04:20;;;;;;;3.00;2.53;;;18.70;99.90;;;;;;5000899;28;20033;-32
2022/07/29 01:06:48;;;;;;;6.00;3.13;;;18.70;99.90;;;;;;4998527;28;20045;-33
2022/07/29 01:09:15;;;;;;;6.30;2.78;;;18.70;99.90;;;;;;4997571;28;21576;-32
2022/07/29 01:11:42;;;;;;;3.33;2.55;;;18.60;99.90;;;;;;4999849;28;20458;-33
2022/07/29 01:14:09;;;;;;;3.13;2.60;;;18.50;99.90;;;;;;4998015;28;20788;-33
2022/07/29 01:16:46;;;;;;;6.40;3.00;;;18.60;99.90;;;;;;4996222;28;20034;-32
2022/07/29 01:19:39;;;;;;;5.50;2.93;;;18.60;99.90;;;;;;4998736;28;20026;-32
2022/07/29 01:22:31;;;;;;;3.20;2.90;;;18.60;99.90;;;;;;4999007;28;20073;-32
2022/07/29 01:25:27;;;;;;;3.28;2.90;;;18.50;99.90;;;;;;4999408;28;20022;-32
2022/07/29 01:28:13;;;;;;;2.88;2.67;;;18.50;99.90;;;;;;4998988;28;20038;-33
2022/07/29 01:30:44;;;;;;;5.35;3.00;;;18.50;99.90;;;;;;4999084;28;20462;-34
2022/07/29 01:33:48;;;;;;;4.07;3.22;;;18.50;99.90;;;;;;4998267;28;20025;-33
2022/07/29 01:36:03;;;;;;;3.33;2.88;;;18.50;99.90;;;;;;4996565;28;20645;-33
2022/07/29 01:38:29;;;;;;;5.10;3.10;;;18.40;99.90;;;;;;4999419;28;20068;-32
2022/07/29 01:41:04;;;;;;;2.95;2.65;;;18.20;99.90;;;;;;4997611;28;20034;-32
2022/07/29 01:43:49;;;;;;;3.33;3.03;;;18.20;99.90;;;;;;4996442;28;20538;-32
2022/07/29 01:46:21;;;;;;;4.93;3.03;;;18.20;99.90;;;;;;4999826;28;20046;-32
2022/07/29 01:48:57;;;;;;;3.35;3.00;;;18.20;99.90;;;;;;4999357;28;20034;-32
2022/07/29 01:51:39;;;;;;;6.68;3.33;;;18.00;99.90;;;;;;4997285;28;20735;-33
2022/07/29 01:54:33;;;;;;;5.68;4.00;;;18.00;99.90;;;;;;4997362;28;20548;-33
2022/07/29 01:57:00;;;;;;;4.90;3.60;;;18.20;99.90;;;;;;4997525;28;20040;-32
2022/07/29 01:59:27;;;;;;;5.05;3.55;;;18.10;99.90;;;;;;4998974;28;20522;-33
2022/07/29 02:01:54;;;;;;;4.07;3.63;;;18.10;99.90;;;;;;4998152;28;20092;-33
2022/07/29 02:04:21;;;;;;;4.38;3.72;;;18.10;99.90;;;;;;4995808;28;20096;-32
2022/07/29 02:06:50;;;;;;;4.55;4.00;;;18.20;99.90;;;;;;4997803;28;20595;-32
2022/07/29 02:09:19;;;;;;;4.18;3.40;;;18.10;99.90;;;;;;4997551;28;20021;-33
2022/07/29 02:11:50;;;;;;;4.30;3.90;;;18.00;99.90;;;;;;4997851;28;20030;-32
2022/07/29 02:14:19;;;;;;;5.00;3.83;;;17.70;99.90;;;;;;5002678;28;20029;-32
2022/07/29 02:16:46;;;;;;;4.88;4.15;;;17.50;99.90;;;;;;5000270;28;20026;-33
2022/07/29 02:19:13;;;;;;;4.30;3.90;;;17.50;99.90;;;;;;4999803;28;20029;-33
2022/07/29 02:21:42;;;;;;;7.05;4.40;;;17.50;99.90;;;;;;4999961;28;20399;-32
2022/07/29 02:24:08;;;;;;;;;;;17.50;99.90;;;;;;4999573;28;20049;-34
2022/07/29 02:26:34;;;;;;;4.10;3.65;;;17.50;99.90;;;;;;5000015;28;20296;-32
2022/07/29 02:29:01;;;;;;;5.78;4.03;;;17.60;99.90;;;;;;5002417;28;20022;-32
2022/07/29 02:31:33;;;;;;;4.77;4.27;;;17.70;99.90;;;;;;5001341;28;20061;-32
2022/07/29 02:34:01;;;;;;;5.40;3.88;;;17.70;99.90;;;;;;5001004;28;20018;-32
2022/07/29 02:36:29;;;;;;;4.75;3.33;;;17.80;99.90;;;;;;5002218;28;20494;-33
2022/07/29 02:38:57;;;;;;;3.75;3.35;;;17.90;99.90;;;;;;5003492;28;20976;-32
2022/07/29 02:41:43;;;;;;;6.80;3.53;;;18.00;99.90;;;;;;5002996;28;20035;-33
2022/07/29 02:44:20;;;;;;;4.43;3.30;;;18.10;99.90;;;;;;5001292;28;20029;-33
2022/07/29 02:47:06;;;;;;;5.68;2.90;;;18.10;99.90;;;;;;5000797;28;20479;-32
2022/07/29 02:49:37;;;;;;;3.40;2.92;;;18.00;99.90;;;;;;5002249;28;20600;-33
2022/07/29 02:52:18;;;;;;;3.45;2.78;;;17.90;99.90;;;;;;5000571;28;20040;-33
2022/07/29 02:55:00;;;;;;;4.30;3.55;;;17.80;99.90;;;;;;5001883;28;20054;-33
2022/07/29 02:57:34;;;;;;;3.85;3.38;;;17.80;99.90;;;;;;5000089;28;20486;-32
2022/07/29 03:00:05;;;;;;;3.30;3.03;;;17.90;99.90;;;;;;5003272;28;20026;-33
2022/07/29 03:02:35;;;;;;;4.05;3.65;;;18.00;99.90;;;;;;4998364;28;20169;-34
2022/07/29 03:05:02;;;;;;;5.00;3.63;;;18.00;99.90;;;;;;5002050;28;20070;-33
2022/07/29 03:07:29;;;;;;;4.93;3.75;;;18.10;99.90;;;;;;4994111;28;20026;-34
2022/07/29 03:09:55;;;;;;;5.40;3.55;;;18.10;99.90;;;;;;4995802;28;20151;-33
2022/07/29 03:12:21;;;;;;;5.68;4.00;;;18.10;99.90;;;;;;4998051;28;20035;-33
2022/07/29 03:14:48;;;;;;;4.82;3.20;;;18.00;99.90;;;;;;5000780;28;20038;-33
2022/07/29 03:17:14;;;;;;;4.75;4.22;;;18.00;99.90;;;;;;4999965;28;20034;-34
2022/07/29 03:19:41;;;;;;;5.78;3.97;;;18.10;99.90;;;;;;5003604;28;20045;-34
2022/07/29 03:22:07;;;;;;;4.00;3.60;;;18.10;99.90;;;;;;5002690;28;20518;-33
2022/07/29 03:24:35;;;;;;;4.50;3.58;;;18.10;99.90;;;;;;5001531;28;20113;-33
2022/07/29 03:27:02;;;;;;;4.38;3.45;;;18.10;99.90;;;;;;5001777;28;20637;-33
2022/07/29 03:29:28;;;;;;;6.82;3.78;;;18.10;99.90;;;;;;5001636;28;20026;-33
2022/07/29 03:31:54;;;;;;;3.97;3.38;;;18.10;99.90;;;;;;4999481;28;20641;-34
2022/07/29 03:34:20;;;;;;;5.55;3.75;;;18.10;99.90;;;;;;5001664;28;20041;-32
2022/07/29 03:36:47;;;;;;;4.60;3.30;;;18.00;99.90;;;;;;4997549;28;20026;-34
2022/07/29 03:39:16;;;;;;;3.90;3.50;;;17.90;99.90;;;;;;4999818;28;20176;-33
2022/07/29 03:41:43;;;;;;;5.20;3.97;;;18.00;99.90;;;;;;5001406;28;20053;-32
2022/07/29 03:44:10;;;;;;;4.10;3.70;;;18.00;99.90;;;;;;4998617;28;20027;-32
2022/07/29 03:46:37;;;;;;;5.32;3.17;;;17.90;99.90;;;;;;4999029;28;20072;-33
2022/07/29 03:49:04;;;;;;;4.27;2.97;;;17.90;99.90;;;;;;4998159;28;20120;-33
2022/07/29 03:51:30;;;;;;;5.90;3.70;;;17.90;99.90;;;;;;5005785;28;20033;-32
2022/07/29 03:53:57;;;;;;;4.15;3.40;;;17.70;99.90;;;;;;4998181;28;20030;-32
2022/07/29 03:56:24;;;;;;;3.42;3.13;;;17.50;99.90;;;;;;5007300;28;20079;-33
2022/07/29 03:58:53;;;;;;;4.70;3.20;;;17.40;99.90;;;;;;5003702;28;20037;-33
2022/07/29 04:01:19;;;;;;;3.83;3.40;;;17.30;99.90;;;;;;5005912;28;20060;-33
2022/07/29 04:03:45;;;;;;;3.95;3.17;;;17.40;99.90;;;;;;5005380;28;20037;-32
2022/07/29 04:06:11;;;;;;;3.75;3.30;;;17.50;99.90;;;;;;5005435;28;20585;-34
2022/07/29 04:08:37;;;;;;;4.53;3.35;;;17.50;99.90;;;;;;5004163;28;20438;-34
2022/07/29 04:11:04;;;;;;;6.80;3.30;;;17.60;99.90;;;;;;5004222;28;20037;-33
2022/07/29 04:13:31;;;;;;;3.50;3.20;;;17.70;99.90;;;;;;5003245;28;20045;-33
2022/07/29 04:15:57;;;;;;;4.93;3.15;;;17.60;99.90;;;;;;5002881;28;20026;-33
2022/07/29 04:18:23;;;;;;;4.20;3.80;;;17.70;99.90;;;;;;5003206;28;20044;-32
2022/07/29 04:20:48;;;;;;;4.50;2.92;;;17.50;99.90;;;;;;5001767;28;20034;-33
2022/07/29 04:23:14;;;;;;;54.40;4.78;;;17.50;99.90;;;;;;5002478;28;20038;-32
2022/07/29 04:25:40;;;;;;;4.40;3.15;;;17.40;99.90;;;;;;5003381;28;20048;-33
2022/07/29 04:28:07;;;;;;;5.03;3.92;;;17.30;99.90;;;;;;5004351;28;20038;-33
2022/07/29 04:30:35;;;;;;;4.90;3.55;;;17.30;99.90;;;;;;5003719;28;20022;-33
2022/07/29 04:33:02;;;;;;;6.17;3.97;;;17.30;99.90;;;;;;5002811;28;20076;-33
2022/07/29 04:35:29;;;;;;;5.78;4.30;;;17.30;99.90;;;;;;5004765;28;20272;-34
2022/07/29 04:37:54;;;;;;;4.65;3.50;;;17.30;99.90;;;;;;5002057;28;20040;-33
2022/07/29 04:40:20;;;;;;;4.00;3.60;;;17.30;99.90;;;;;;5002441;28;20042;-32
2022/07/29 04:42:46;;;;;;;3.63;3.33;;;17.30;99.90;;;;;;5006687;28;20061;-34
2022/07/29 04:45:11;;;;;;;6.32;3.47;;;17.40;99.90;;;;;;5003733;28;20034;-32
2022/07/29 04:47:37;;;;;;;4.68;3.53;;;17.60;99.90;;;;;;5002041;28;20033;-34
2022/07/29 04:50:05;;;;;;;6.10;3.08;;;17.70;99.90;;;;;;5004997;28;20453;-32
2022/07/29 04:52:30;;;;;;;4.85;3.70;;;17.80;99.90;;;;;;5006655;28;20073;-33
2022/07/29 04:54:56;;;;;;;4.43;3.60;;;17.80;99.90;;;;;;5002172;28;20129;-32
2022/07/29 04:57:21;;;;;;;5.65;4.15;;;17.90;99.90;;;;;;4999515;28;20065;-32
2022/07/29 04:59:48;;;;;;;5.43;3.95;;;18.00;99.90;;;;;;5001656;28;20022;-33
2022/07/29 05:02:14;;;;;;;4.70;4.20;;;18.00;99.90;;;;;;4998354;28;20050;-34
2022/07/29 05:04:39;;;;;;;6.32;4.53;;;18.10;99.90;;;;;;5004299;28;20042;-32
2022/07/29 05:07:05;;;;;;;4.40;4.00;;;18.10;99.90;;;;;;5005437;28;20029;-33
2022/07/29 05:09:32;;;;;;;6.43;4.15;;;18.30;99.90;;;;;;4999541;28;20038;-33
2022/07/29 05:11:57;;;;;;;5.15;4.55;;;18.20;99.90;;;;;;5002680;28;20113;-32
2022/07/29 05:14:23;;;;;;;4.90;4.03;;;18.20;99.90;;;;;;5002131;28;20121;-35
2022/07/29 05:16:50;;;;;;;6.15;4.20;;;18.10;99.90;;;;;;5000125;28;20593;-33
2022/07/29 05:19:16;;;;;;;10.87;4.73;;;18.20;99.90;;;;;;4997334;28;20038;-32
2022/07/29 05:21:42;;;;;;;6.07;5.00;;;18.10;99.90;;;;;;4999258;28;20281;-33
2022/07/29 05:24:08;;;;;;;7.20;4.00;;;18.10;99.90;;;;;;5001924;28;20072;-33
2022/07/29 05:26:33;;;;;;;6.07;4.10;;;18.10;99.90;;;;;;5003411;28;20034;-34
2022/07/29 05:28:59;;;;;;;5.07;3.90;;;18.20;99.90;;;;;;5001085;28;20025;-35
2022/07/29 05:31:24;;;;;;;4.72;3.92;;;18.30;99.90;;;;;;5001767;28;20048;-33
2022/07/29 05:33:50;;;;;;;6.70;3.90;;;18.40;99.90;;;;;;4998412;28;20607;-32
2022/07/29 05:36:15;;;;;;;5.25;4.15;;;18.40;99.90;;;;;;5004353;28;20037;-33
2022/07/29 05:38:41;;;;;;;8.25;4.68;;;18.50;99.90;;;;;;5001827;28;20029;-32
2022/07/29 05:41:07;;;;;;;9.95;4.20;;;18.60;99.90;;;;;;5004747;28;20029;-32
2022/07/29 05:43:32;;;;;;;5.47;4.20;;;18.70;99.90;;;;;;5004451;28;20052;-33
2022/07/29 05:45:58;;;;;;;5.68;4.60;;;18.70;99.90;;;;;;4998880;28;20053;-32
2022/07/29 05:48:24;;;;;;;4.65;3.50;;;18.80;99.90;;;;;;5002500;28;20044;-33
2022/07/29 05:50:49;;;;;;;4.93;3.28;;;18.80;99.90;;;;;;5000577;28;20482;-32
2022/07/29 05:53:16;;;;;;;3.67;3.00;;;18.80;99.90;;;;;;5004122;28;20542;-33
2022/07/29 05:55:41;;;;;;;8.70;3.10;;;18.80;99.90;;;;;;5000097;28;20100;-33
2022/07/29 05:58:07;;;;;;;5.00;2.50;;;18.90;99.90;;;;;;5003505;28;20030;-32
2022/07/29 06:00:32;;;;;;;2.88;2.22;;;19.00;99.90;;;;;;5015830;28;20196;-33
2022/07/29 06:02:58;;;;;;;4.18;2.42;;;19.20;99.90;;;;;;5001187;28;20037;-32
2022/07/29 06:05:23;;;;;;;4.90;2.38;;;19.30;99.90;;;;;;5002721;28;20106;-32
2022/07/29 06:07:49;;;;;;;5.57;3.08;;;19.30;99.90;;;;;;5003614;28;20032;-33
2022/07/29 06:10:15;;;;;;;5.32;2.40;;;19.50;99.90;;;;;;4997720;28;20060;-33
2022/07/29 06:12:40;;;;;;;4.63;2.95;;;19.70;99.90;;;;;;5003545;28;20018;-32
2022/07/29 06:15:06;;;;;;;6.78;3.35;;;19.80;99.90;;;;;;5001356;28;20870;-32
2022/07/29 06:17:32;;;;;;;3.70;2.55;;;19.90;99.90;;;;;;5000297;28;20056;-32
2022/07/29 06:19:57;;;;;;;3.65;2.72;;;19.60;99.90;;;;;;5000259;28;20510;-32
2022/07/29 06:22:23;;;;;;;3.95;3.55;;;19.80;99.90;;;;;;5002760;28;20107;-33
2022/07/29 06:24:49;;;;;;;4.45;2.92;;;20.00;99.90;;;;;;5003450;28;20026;-32
2022/07/29 06:27:16;;;;;;;5.85;2.85;;;20.10;99.90;;;;;;5004083;28;20507;-32
2022/07/29 06:29:42;;;;;;;5.15;2.75;;;20.20;99.90;;;;;;5002513;28;20112;-32
2022/07/29 06:32:08;;;;;;;7.30;3.15;;;20.50;99.90;;;;;;5001358;28;20169;-32
2022/07/29 06:34:35;;;;;;;4.13;3.20;;;20.60;99.90;;;;;;4999632;28;20025;-32
2022/07/29 06:37:05;;;;;;;4.28;2.80;;;20.60;99.90;;;;;;5003718;28;20080;-32
2022/07/29 06:39:30;;;;;;;4.18;3.08;;;20.70;99.90;;;;;;5001267;28;20742;-31
2022/07/29 06:41:56;;;;;;;5.25;3.20;;;20.70;99.90;;;;;;5003837;28;20030;-31
2022/07/29 06:44:21;;;;;;;3.08;2.83;;;20.80;99.90;;;;;;5004376;28;20060;-32
2022/07/29 06:46:49;;;;;;;6.82;3.35;;;21.00;99.90;;;;;;5002179;28;20030;-31
2022/07/29 06:49:15;;;;;;;;;;;21.20;99.90;;;;;;5005677;28;20069;-31
2022/07/29 06:51:41;;;;;;;4.70;3.55;;;21.20;99.90;;;;;;5002199;28;19948;-31
2022/07/29 06:54:06;;;;;;;4.13;3.40;;;21.30;99.90;;;;;;5000009;28;20046;-32
2022/07/29 06:56:33;;;;;;;4.20;3.40;;;21.20;99.90;;;;;;5001330;28;20030;-32
2022/07/29 06:58:59;;;;;;;7.15;3.55;;;21.30;99.90;;;;;;5003852;28;20092;-31
2022/07/29 07:01:24;;;;;;;4.65;3.47;;;21.30;99.90;;;;;;5002439;28;20056;-31
2022/07/29 07:03:50;;;;;;;7.63;4.32;;;21.40;99.90;;;;;;5002112;28;20037;-31
2022/07/29 07:06:16;;;;;;;4.55;3.42;;;21.60;99.90;;;;;;5004036;28;20553;-32
2022/07/29 07:08:42;;;;;;;4.45;3.10;;;21.30;99.90;;;;;;5000960;28;20037;-31
2022/07/29 07:11:08;;;;;;;5.38;3.33;;;21.30;99.90;;;;;;5002770;28;20022;-31
2022/07/29 07:13:34;;;;;;;4.03;3.13;;;21.20;99.90;;;;;;5002594;28;20521;-31
2022/07/29 07:16:01;;;;;;;5.40;3.40;;;21.50;99.90;;;;;;5000983;28;20033;-33
2022/07/29 07:18:27;;;;;;;4.30;3.25;;;21.50;99.90;;;;;;5001947;28;20402;-31
2022/07/29 07:20:53;;;;;;;4.22;3.33;;;21.30;99.90;;;;;;5001301;28;21718;-31
2022/07/29 07:23:18;;;;;;;4.13;3.10;;;21.40;99.90;;;;;;4998764;28;20026;-32
2022/07/29 07:25:44;;;;;;;7.53;3.40;;;21.50;99.90;;;;;;5018895;28;20039;-32
2022/07/29 07:28:10;;;;;;;4.00;3.05;;;21.60;99.90;;;;;;5007451;28;20142;-31
2022/07/29 07:30:36;;;;;;;3.40;2.70;;;21.60;99.90;;;;;;5006415;28;20045;-31
2022/07/29 07:33:02;;;;;;;3.75;2.97;;;21.40;99.90;;;;;;5004417;28;20443;-31
2022/07/29 07:35:28;;;;;;;2.85;2.40;;;21.50;99.90;;;;;;5008180;28;20148;-32
2022/07/29 07:37:55;;;;;;;4.82;2.80;;;21.50;99.90;;;;;;5007317;28;20038;-31
2022/07/29 07:40:20;;;;;;;2.95;2.65;;;21.70;99.90;;;;;;5004935;28;20546;-32
2022/07/29 07:42:46;;;;;;;2.67;2.38;;;21.70;99.90;;;;;;5004098;28;20029;-33
2022/07/29 07:45:11;;;;;;;2.80;2.60;;;21.60;99.90;;;;;;5004272;28;20060;-31
2022/07/29 07:47:38;;;;;;;4.88;3.00;;;21.70;99.90;;;;;;5007434;28;20036;-31
2022/07/29 07:50:06;;;;;;;3.60;2.70;;;21.70;99.90;;;;;;5006001;28;20037;-32
2022/07/29 07:52:31;;;;;;;3.88;2.42;;;21.60;99.90;;;;;;5009239;28;20025;-31
2022/07/29 07:54:57;;;;;;;2.97;2.65;;;21.70;99.90;;;;;;5006931;28;20561;-32
2022/07/29 07:57:23;;;;;;;3.25;2.65;;;21.90;99.90;;;;;;5007282;28;20046;-32
2022/07/29 07:59:48;;;;;;;4.22;3.08;;;21.50;99.90;;;;;;5006807;28;20221;-31
2022/07/29 08:02:14;;;;;;;6.65;3.03;;;21.40;99.90;;;;;;5002889;28;20050;-31
2022/07/29 08:04:40;;;;;;;4.05;2.90;;;21.50;99.90;;;;;;5005547;28;20053;-32
2022/07/29 08:07:07;;;;;;;5.03;3.28;;;21.30;99.90;;;;;;5002849;28;20061;-33
2022/07/29 08:09:34;;;;;;;3.17;2.70;;;21.40;99.90;;;;;;5006837;28;20522;-32
2022/07/29 08:12:02;;;;;;;3.85;2.95;;;21.30;99.90;;;;;;5007733;28;20030;-31
2022/07/29 08:14:27;;;;;;;;;;;21.40;99.90;;;;;;5007100;28;20029;-33
2022/07/29 08:16:53;;;;;;;3.42;2.90;;;21.60;99.90;;;;;;5006561;28;19917;-31
2022/07/29 08:19:19;;;;;;;3.15;2.85;;;21.60;99.90;;;;;;5004249;28;20077;-32
2022/07/29 08:21:45;;;;;;;4.97;2.90;;;21.50;99.90;;;;;;5007080;28;21870;-31
2022/07/29 08:26:55;;;;;;;3.22;2.92;;;21.70;99.90;;;;;;5000350;28;20045;-32
2022/07/29 08:29:20;;;;;;;3.42;2.88;;;21.80;99.90;;;;;;5005676;28;20467;-32
2022/07/29 08:31:46;;;;;;;3.38;2.72;;;21.70;99.90;;;;;;5006173;28;20061;-31
2022/07/29 08:34:11;;;;;;;3.40;3.10;;;21.70;99.90;;;;;;5004780;28;20185;-31
2022/07/29 08:36:38;;;;;;;3.55;3.20;;;21.70;99.90;;;;;;5004853;28;20108;-32
2022/07/29 08:39:04;;;;;;;3.83;2.72;;;21.60;99.90;;;;;;5006982;28;20625;-32
2022/07/29 08:41:30;;;;;;;3.75;3.15;;;21.60;99.90;;;;;;5007003;28;20398;-31
2022/07/29 08:43:55;;;;;;;3.55;2.92;;;21.50;99.90;;;;;;5006409;28;20045;-31
2022/07/29 08:46:23;;;;;;;3.25;2.75;;;21.40;99.90;;;;;;5005619;28;20457;-31
2022/07/29 08:48:48;;;;;;;3.30;2.73;;;21.40;99.90;;;;;;5006051;28;20037;-32
2022/07/29 08:51:16;;;;;;;3.15;2.47;;;21.40;99.90;;;;;;5005707;28;20030;-32
2022/07/29 08:53:42;;;;;;;;;;;21.50;99.90;;;;;;5007611;28;20440;-31
2022/07/29 08:56:11;;;;;;;4.07;3.20;;;21.70;99.90;;;;;;5004407;28;19924;-31
2022/07/29 08:58:37;;;;;;;3.83;2.70;;;21.80;99.90;;;;;;5004925;28;20033;-31
2022/07/29 09:01:04;;;;;;;3.35;2.58;;;21.90;99.90;;;;;;5004464;28;20100;-33
2022/07/29 09:03:31;;;;;;;3.83;3.42;;;22.10;99.90;;;;;;5006568;28;20060;-32
2022/07/29 09:05:58;;;;;;;3.33;3.00;;;21.90;99.90;;;;;;5005968;28;20038;-31
2022/07/29 09:08:24;;;;;;;4.07;3.20;;;21.90;99.90;;;;;;5005380;28;20502;-31
2022/07/29 09:10:51;;;;;;;4.38;3.00;;;22.10;99.90;;;;;;5006930;28;20026;-31
2022/07/29 09:13:16;;;;;;;3.40;3.08;;;22.10;99.90;;;;;;5005163;28;20026;-32
2022/07/29 09:15:42;;;;;;;6.35;3.05;;;22.10;99.90;;;;;;5002807;28;20048;-32
2022/07/29 09:18:08;;;;;;;4.60;3.25;;;22.20;99.90;;;;;;5005251;28;20034;-32
2022/07/29 09:23:28;;;;;;;3.10;2.80;;;22.50;99.90;;;;;;5001513;28;20065;-32
2022/07/29 09:25:54;;;;;;;4.05;2.55;;;23.00;99.90;;;;;;5007540;28;20041;-31
2022/07/29 09:28:20;;;;;;;3.55;3.25;;;22.80;97.40;;;;;;5005408;28;20025;-31
2022/07/29 09:30:55;;;;;;;3.55;3.20;;;22.60;99.60;;;;;;5005677;28;20053;-31
2022/07/29 09:33:22;;;;;;;4.38;2.78;;;22.70;99.90;;;;;;5004405;28;20030;-31
2022/07/29 09:36:05;;;;;;;2.80;2.60;;;22.80;99.90;;;;;;5004645;28;20141;-32
2022/07/29 09:38:31;;;;;;;3.20;2.58;;;22.80;99.90;;;;;;5005371;28;20356;-32
2022/07/29 09:41:02;;;;;;;3.20;2.47;;;22.90;99.90;;;;;;5004702;28;20526;-31
2022/07/29 09:43:28;;;;;;;2.30;2.10;;;23.20;99.60;;;;;;5006647;28;20026;-32
2022/07/29 09:45:53;;;;;;;4.68;2.75;;;23.70;97.20;;;;;;5006743;28;20041;-32
2022/07/29 09:48:22;;;;;;;2.58;2.20;;;24.10;95.50;;;;;;5002886;28;20034;-32
2022/07/29 09:50:49;;;;;;;3.33;2.58;;;23.80;92.40;;;;;;5005566;28;20036;-33
2022/07/29 09:53:37;;;;;;;2.58;2.35;;;23.40;93.50;;;;;;5005095;28;20034;-31
2022/07/29 09:56:03;;;;;;;3.47;3.15;;;23.40;92.30;;;;;;5003470;28;20046;-32
2022/07/29 09:58:29;;;;;;;3.00;2.70;;;23.40;93.30;;;;;;5005339;28;20119;-31
2022/07/29 10:00:55;;;;;;;3.25;2.90;;;23.40;94.60;;;;;;5004970;28;20046;-31
2022/07/29 10:03:21;;;;;;;4.47;2.95;;;23.60;93.70;;;;;;4999503;28;20030;-33
2022/07/29 10:06:04;;;;;;;2.60;2.40;;;23.70;94.20;;;;;;5005732;28;20107;-31
2022/07/29 10:08:31;;;;;;;3.08;2.60;;;23.90;95.10;;;;;;5004325;28;20022;-31
2022/07/29 10:11:19;;;;;;;3.40;2.47;;;24.50;95.10;;;;;;5003565;28;20635;-32
2022/07/29 10:13:47;;;;;;;3.00;2.80;;;24.50;91.80;;;;;;5000640;28;20025;-32
2022/07/29 10:16:14;;;;;;;3.90;3.05;;;24.30;91.50;;;;;;5000904;28;20144;-32
2022/07/29 10:18:42;;;;;;;3.00;2.80;;;24.20;94.00;;;;;;5002153;28;20034;-32
2022/07/29 10:21:09;;;;;;;4.40;3.25;;;24.50;93.40;;;;;;5002084;28;20334;-32
2022/07/29 10:23:35;;;;;;;3.40;3.10;;;24.30;93.00;;;;;;4997900;28;20032;-32
2022/07/29 10:26:03;;;;;;;4.45;3.38;;;24.40;93.10;;;;;;5001420;28;20088;-33
2022/07/29 10:28:33;;;;;;;5.40;3.53;;;24.30;95.00;;;;;;5001594;28;20065;-33
2022/07/29 10:31:06;;;;;;;3.40;3.10;;;24.60;94.30;;;;;;5001351;28;20037;-33
2022/07/29 10:34:07;;;;;;;4.53;2.85;;;24.60;92.20;;;;;;5000979;28;20395;-31
2022/07/29 10:36:49;;;;;;;3.38;3.08;;;24.30;91.60;;;;;;4998042;28;20034;-32
2022/07/29 10:39:20;;;;;;;4.38;3.20;;;24.50;92.70;;;;;;5001964;28;20414;-32
2022/07/29 10:42:25;;;;;;;4.38;3.50;;;24.90;93.70;;;;;;4999274;28;20061;-31
2022/07/29 10:44:52;;;;;;;4.60;3.97;;;25.00;90.40;;;;;;5002600;28;20399;-32
2022/07/29 10:47:25;;;;;;;6.82;3.17;;;24.90;90.90;;;;;;5001952;28;20070;-31
2022/07/29 10:49:59;;;;;;;5.43;3.75;;;25.10;92.60;;;;;;5004250;28;20663;-32
2022/07/29 10:52:45;;;;;;;4.80;4.00;;;25.30;88.90;;;;;;5001907;28;20029;-33
2022/07/29 10:55:42;;;;;;;5.00;3.60;;;25.40;87.00;;;;;;5004472;28;20431;-33
2022/07/29 10:58:34;;;;;;;5.35;3.58;;;25.10;90.00;;;;;;5004229;28;20120;-31
2022/07/29 11:01:29;;;;;;;4.55;3.30;;;25.00;90.00;;;;;;5000139;28;20259;-32
2022/07/29 11:03:56;;;;;;;4.40;3.45;;;25.10;91.30;;;;;;5002503;28;20040;-31
2022/07/29 11:06:22;;;;;;;5.00;3.10;;;25.10;91.00;;;;;;5002760;28;20022;-32
2022/07/29 11:09:20;;;;;;;3.97;2.97;;;25.10;91.00;;;;;;5004319;28;20034;-32
2022/07/29 11:11:46;;;;;;;4.47;3.40;;;25.40;91.30;;;;;;5001892;28;20030;-32
2022/07/29 11:14:12;;;;;;;3.97;3.28;;;25.60;90.00;;;;;;5000932;28;20032;-32
2022/07/29 11:17:04;;;;;;;3.42;2.65;;;25.60;83.80;;;;;;4997437;28;20030;-33
2022/07/29 11:19:30;;;;;;;4.20;3.42;;;25.10;76.70;;;;;;5003413;28;20041;-32
2022/07/29 11:21:56;;;;;;;3.50;3.00;;;25.10;82.10;;;;;;5004495;28;20663;-32
2022/07/29 11:24:27;;;;;;;3.03;2.83;;;25.10;80.70;;;;;;5005036;28;20033;-32
2022/07/29 11:27:14;;;;;;;4.03;2.90;;;25.10;79.60;;;;;;5003895;28;20034;-32
2022/07/29 11:29:52;;;;;;;2.80;2.60;;;25.00;75.10;;;;;;5004955;28;20117;-32
2022/07/29 11:32:19;;;;;;;3.15;2.42;;;25.10;78.80;;;;;;5004248;28;20042;-31
2022/07/29 11:34:47;;;;;;;2.97;2.42;;;25.20;73.80;;;;;;5004643;28;20515;-32
2022/07/29 11:37:12;;;;;;;3.80;2.90;;;25.20;66.50;;;;;;5003010;28;20029;-32
2022/07/29 11:39:42;;;;;;;3.20;2.90;;;25.30;66.80;;;;;;5004097;28;20029;-32
2022/07/29 11:42:16;;;;;;;4.00;2.80;;;25.20;67.50;;;;;;5002041;28;20030;-32
2022/07/29 11:44:58;;;;;;;6.43;2.67;;;25.20;63.60;;;;;;5001529;28;20487;-32
2022/07/29 11:47:25;;;;;;;3.17;2.45;;;25.40;68.80;;;;;;5002543;28;20068;-32
2022/07/29 11:49:52;;;;;;;5.18;2.67;;;25.70;69.00;;;;;;5001215;28;20026;-31
2022/07/29 11:52:19;;;;;;;2.70;2.47;;;25.90;69.80;;;;;;4997967;28;20038;-32
2022/07/29 11:54:48;;;;;;;3.80;2.80;;;26.20;67.40;;;;;;5001941;28;20038;-32
2022/07/29 11:57:16;;;;;;;3.05;2.75;;;25.90;66.80;;;;;;5001235;28;20522;-32
2022/07/29 11:59:45;;;;;;;5.50;2.70;;;25.80;67.80;;;;;;5016848;28;20077;-32
2022/07/29 12:02:12;;;;;;;3.22;2.70;;;25.80;62.80;;;;;;5001314;28;20237;-33
2022/07/29 12:04:51;;;;;;;5.43;2.92;;;25.70;66.10;;;;;;5000721;28;20030;-33
2022/07/29 12:07:17;;;;;;;3.85;2.60;;;25.50;63.80;;;;;;4999398;28;20034;-32
2022/07/29 12:09:53;;;;;;;3.67;2.45;;;25.40;65.90;;;;;;5003291;28;20045;-32
2022/07/29 12:12:19;;;;;;;3.85;2.60;;;25.20;62.00;;;;;;5004048;28;20054;-33
2022/07/29 12:14:48;;;;;;;2.63;2.40;;;25.20;61.90;;;;;;5005986;28;20074;-32
2022/07/29 12:17:31;;;;;;;4.43;2.85;;;25.10;63.80;;;;;;5006911;28;20168;-32
2022/07/29 12:19:58;;;;;;;2.63;2.42;;;25.20;64.80;;;;;;5004554;28;20038;-31
2022/07/29 12:22:31;;;;;;;2.50;2.30;;;25.20;64.30;;;;;;5006467;28;20109;-33
2022/07/29 12:25:02;;;;;;;2.65;2.45;;;25.40;62.00;;;;;;5006652;28;20431;-32
2022/07/29 12:27:28;;;;;;;3.83;2.53;;;25.20;62.90;;;;;;5006523;28;20152;-32
2022/07/29 12:30:15;;;;;;;3.33;2.50;;;25.40;64.10;;;;;;5005119;28;20471;-32
2022/07/29 12:32:44;;;;;;;4.13;2.42;;;25.60;65.50;;;;;;5001328;28;20034;-32
2022/07/29 12:35:11;;;;;;;3.05;2.20;;;25.60;60.40;;;;;;5004424;28;20526;-33
2022/07/29 12:37:39;;;;;;;2.60;2.40;;;25.60;61.00;;;;;;5004927;28;20026;-32
2022/07/29 12:40:07;;;;;;;3.50;3.22;;;25.60;60.40;;;;;;5003048;28;20526;-32
2022/07/29 12:42:32;;;;;;;2.50;2.30;;;25.40;62.80;;;;;;5006948;28;20120;-32
2022/07/29 12:44:58;;;;;;;2.63;2.42;;;25.30;61.00;;;;;;5004595;28;21146;-33
2022/07/29 12:47:24;;;;;;;2.47;2.28;;;25.10;59.50;;;;;;5003504;28;20034;-32
2022/07/29 12:49:51;;;;;;;2.38;2.17;;;25.10;61.80;;;;;;5006058;28;20025;-32
2022/07/29 12:52:31;;;;;;;3.13;2.15;;;25.10;58.90;;;;;;5005516;28;20018;-32
2022/07/29 12:54:57;;;;;;;5.20;2.90;;;24.80;60.00;;;;;;5004791;28;20057;-32
2022/07/29 12:57:23;;;;;;;2.47;2.28;;;24.70;57.90;;;;;;5006356;28;20034;-32
2022/07/29 13:00:23;;;;;;;5.40;2.20;;;24.60;58.80;;;;;;5008133;28;20100;-32
2022/07/29 13:02:58;;;;;;;2.60;2.10;;;24.50;55.90;;;;;;5001642;28;20045;-32
2022/07/29 13:05:38;;;;;;;2.65;2.20;;;24.50;58.90;;;;;;5005119;28;20080;-32